createdAt,value
2023-03-31T00:02:15.602Z,74.32
2023-03-31T00:07:22.404Z,74.34
2023-03-31T00:12:25.178Z,74.40
2023-03-31T00:17:27.801Z,74.46
2023-03-31T00:22:30.222Z,74.37
2023-03-31T00:27:32.844Z,74.45
2023-03-31T00:32:35.371Z,74.49
2023-03-31T00:37:37.900Z,74.54
2023-03-31T00:42:42.254Z,74.54
2023-03-31T00:47:50.264Z,74.69
2023-03-31T00:52:58.316Z,74.44
2023-03-31T00:58:02.381Z,74.61
2023-03-31T01:03:07.995Z,74.33
2023-03-31T01:08:11.173Z,74.61
2023-03-31T01:13:15.283Z,74.49
2023-03-31T01:18:22.204Z,75.00
2023-03-31T01:24:03.641Z,74.77
2023-03-31T01:29:06.014Z,74.78
2023-03-31T01:34:45.259Z,74.89
2023-03-31T01:39:47.802Z,74.81
2023-03-31T01:45:20.625Z,74.92
2023-03-31T01:50:28.679Z,74.85
2023-03-31T01:55:37.691Z,75.00
2023-03-31T02:00:44.175Z,74.87
2023-03-31T02:05:58.563Z,75.00
2023-03-31T02:11:01.314Z,74.91
2023-03-31T02:16:08.371Z,75.12
2023-03-31T02:21:12.633Z,74.89
2023-03-31T02:26:18.227Z,75.17
2023-03-31T02:31:29.030Z,75.24
2023-03-31T02:36:34.296Z,75.16
2023-03-31T02:41:37.179Z,74.67
2023-03-31T02:46:40.380Z,74.76
2023-03-31T02:51:48.918Z,75.07
2023-03-31T02:57:06.681Z,75.04
2023-03-31T03:02:11.375Z,75.20
2023-03-31T03:07:32.156Z,75.00
2023-03-31T03:12:59.666Z,75.13
2023-03-31T03:18:02.779Z,74.92
2023-03-31T03:23:05.318Z,74.76
2023-03-31T03:28:08.181Z,74.77
2023-03-31T03:33:11.440Z,74.84
2023-03-31T03:38:14.024Z,75.28
2023-03-31T03:43:16.530Z,74.91
2023-03-31T03:48:19.757Z,75.12
2023-03-31T03:53:22.302Z,74.94
2023-03-31T03:58:24.911Z,75.24
2023-03-31T04:03:27.697Z,75.19
2023-03-31T04:08:30.594Z,75.26
2023-03-31T04:13:33.163Z,74.99
2023-03-31T04:18:37.633Z,75.31
2023-03-31T04:23:47.092Z,75.54
2023-03-31T04:28:51.243Z,75.78
2023-03-31T04:34:02.890Z,75.59
2023-03-31T04:39:11.284Z,75.64
2023-03-31T04:44:14.061Z,75.39
2023-03-31T04:49:16.817Z,75.50
2023-03-31T04:54:19.642Z,75.53
2023-03-31T04:59:22.221Z,75.49
2023-03-31T05:04:24.925Z,75.87
2023-03-31T05:09:27.549Z,75.89
2023-03-31T05:14:30.091Z,75.51
2023-03-31T05:19:32.854Z,75.65
2023-03-31T05:24:35.483Z,76.10
2023-03-31T05:29:37.976Z,75.80
2023-03-31T05:34:40.689Z,75.68
2023-03-31T05:39:43.486Z,75.64
2023-03-31T05:44:46.192Z,75.83
2023-03-31T05:49:48.684Z,75.94
2023-03-31T05:54:51.399Z,75.75
2023-03-31T05:59:53.942Z,75.17
2023-03-31T06:04:56.434Z,75.54
2023-03-31T06:09:58.936Z,75.16
2023-03-31T06:15:01.428Z,75.35
2023-03-31T06:20:19.780Z,75.41
2023-03-31T06:25:34.501Z,75.21
2023-03-31T06:30:43.320Z,75.39
2023-03-31T06:35:46.379Z,75.02
2023-03-31T06:40:48.893Z,74.94
2023-03-31T06:45:53.991Z,74.94
2023-03-31T06:51:00.411Z,74.74
2023-03-31T06:56:03.178Z,74.32
2023-03-31T07:01:06.595Z,73.89
2023-03-31T07:06:09.335Z,74.38
2023-03-31T07:11:12.133Z,73.73
2023-03-31T07:16:14.845Z,73.44
2023-03-31T07:21:17.239Z,73.31
2023-03-31T07:26:19.713Z,72.43
2023-03-31T07:31:22.304Z,71.65
2023-03-31T07:36:24.808Z,71.71
2023-03-31T07:41:27.291Z,71.93
2023-03-31T07:46:29.856Z,71.71
2023-03-31T07:51:32.251Z,71.79
2023-03-31T07:56:34.673Z,71.12
2023-03-31T08:01:37.178Z,70.41
2023-03-31T08:06:39.994Z,70.03
2023-03-31T08:11:46.016Z,70.23
2023-03-31T08:16:49.314Z,69.71
2023-03-31T08:21:52.707Z,69.83
2023-03-31T08:26:55.337Z,69.78
2023-03-31T08:31:57.934Z,69.33
2023-03-31T08:37:00.457Z,69.55
2023-03-31T08:42:13.945Z,69.08
2023-03-31T08:47:21.232Z,69.32
2023-03-31T08:52:32.396Z,68.41
2023-03-31T08:57:47.730Z,67.96
2023-03-31T09:03:00.996Z,68.78
2023-03-31T09:08:22.886Z,69.09
2023-03-31T09:14:02.676Z,68.06
2023-03-31T09:19:31.011Z,68.73
2023-03-31T09:24:37.525Z,69.00
2023-03-31T09:29:42.811Z,68.80
2023-03-31T09:34:46.846Z,68.45
2023-03-31T09:39:49.634Z,68.19
2023-03-31T09:44:52.135Z,67.92
2023-03-31T09:49:54.628Z,68.03
2023-03-31T09:55:01.563Z,67.47
2023-03-31T10:00:21.783Z,66.91
2023-03-31T10:05:36.888Z,68.15
2023-03-31T10:10:39.568Z,68.26
2023-03-31T10:15:42.512Z,67.72
2023-03-31T10:20:52.437Z,67.04
2023-03-31T10:25:55.238Z,67.58
2023-03-31T10:31:01.944Z,67.50
2023-03-31T10:36:27.106Z,66.37
2023-03-31T10:41:30.823Z,67.38
2023-03-31T10:47:15.688Z,66.41
2023-03-31T10:52:29.054Z,67.12
2023-03-31T10:57:56.962Z,65.94
2023-03-31T11:02:59.580Z,67.28
2023-03-31T11:08:28.456Z,66.23
2023-03-31T11:13:38.686Z,67.12
2023-03-31T11:18:59.897Z,66.78
2023-03-31T11:24:32.194Z,67.16
2023-03-31T11:29:50.062Z,66.75
2023-03-31T11:35:19.724Z,67.12
2023-03-31T11:40:52.576Z,66.73
2023-03-31T11:46:01.512Z,66.90
2023-03-31T11:51:07.177Z,67.09
2023-03-31T11:56:12.220Z,67.42
2023-03-31T12:01:36.341Z,66.79
2023-03-31T12:06:42.938Z,66.92
2023-03-31T12:12:03.439Z,67.23
2023-03-31T12:17:15.151Z,67.06
2023-03-31T12:22:34.858Z,66.32
2023-03-31T12:27:42.074Z,66.86
2023-03-31T12:32:47.774Z,66.48
2023-03-31T12:38:03.280Z,66.67
2023-03-31T12:43:16.751Z,66.65
2023-03-31T12:48:43.751Z,65.86
2023-03-31T12:54:04.495Z,66.06
2023-03-31T12:59:19.655Z,65.78
2023-03-31T13:04:22.767Z,66.76
2023-03-31T13:09:43.228Z,66.19
2023-03-31T13:14:48.627Z,66.64
2023-03-31T13:19:51.939Z,66.71
2023-03-31T13:24:54.666Z,66.33
2023-03-31T13:29:57.395Z,66.66
2023-03-31T13:35:08.065Z,66.12
2023-03-31T13:40:28.712Z,66.04
2023-03-31T13:45:51.103Z,65.68
2023-03-31T13:51:11.949Z,66.49
2023-03-31T13:56:27.348Z,65.96
2023-03-31T14:01:51.364Z,66.28
2023-03-31T14:07:03.027Z,66.22
2023-03-31T14:12:32.503Z,66.34
2023-03-31T14:17:38.293Z,66.78
2023-03-31T14:22:58.786Z,67.42
2023-03-31T14:28:23.947Z,67.67
2023-03-31T14:33:32.593Z,67.89
2023-03-31T14:38:35.274Z,67.73
2023-03-31T14:43:41.390Z,67.62
2023-03-31T14:48:48.127Z,67.85
2023-03-31T14:53:59.582Z,67.92
2023-03-31T14:59:02.310Z,68.01
2023-03-31T15:04:11.696Z,67.93
2023-03-31T15:09:34.808Z,68.38
2023-03-31T15:14:41.381Z,68.56
2023-03-31T15:19:43.792Z,68.69
2023-03-31T15:24:47.479Z,68.80
2023-03-31T15:29:57.771Z,69.06
2023-03-31T15:35:11.048Z,69.18
2023-03-31T15:40:44.395Z,69.71
2023-03-31T15:45:52.381Z,69.60
2023-03-31T15:51:06.294Z,70.10
2023-03-31T15:56:08.860Z,70.17
2023-03-31T16:01:16.015Z,70.49
2023-03-31T16:06:40.264Z,71.68
2023-03-31T16:11:50.459Z,71.63
2023-03-31T16:16:57.497Z,71.77
2023-03-31T16:22:02.437Z,71.84
2023-03-31T16:27:09.828Z,72.53
2023-03-31T16:32:21.320Z,73.39
2023-03-31T16:37:24.640Z,72.86
2023-03-31T16:42:32.187Z,73.31
2023-03-31T16:47:37.567Z,73.56
2023-03-31T16:52:41.486Z,73.71
2023-03-31T16:57:47.028Z,74.00
2023-03-31T17:02:51.466Z,74.08
2023-03-31T17:07:54.632Z,74.58
2023-03-31T17:12:57.368Z,74.81
2023-03-31T17:18:09.166Z,74.85
2023-03-31T17:23:12.316Z,75.21
2023-03-31T17:28:14.796Z,75.29
2023-03-31T17:33:17.702Z,75.49
2023-03-31T17:38:22.912Z,75.63
2023-03-31T17:43:25.498Z,75.85
2023-03-31T17:48:28.304Z,75.94
2023-03-31T17:53:34.496Z,76.04
2023-03-31T17:58:38.327Z,76.00
2023-03-31T18:03:45.323Z,76.11
2023-03-31T18:08:48.269Z,76.52
2023-03-31T18:13:51.490Z,76.61
2023-03-31T18:18:54.166Z,76.66
2023-03-31T18:23:56.696Z,76.90
2023-03-31T18:29:00.346Z,77.11
2023-03-31T18:34:02.976Z,77.08
2023-03-31T18:39:05.571Z,77.30
2023-03-31T18:44:08.805Z,77.00
2023-03-31T18:49:12.328Z,77.39
2023-03-31T18:54:14.964Z,77.45
2023-03-31T18:59:18.071Z,77.36
2023-03-31T19:04:20.896Z,77.35
2023-03-31T19:09:26.386Z,77.71
2023-03-31T19:14:29.122Z,77.73
2023-03-31T19:19:31.671Z,78.08
2023-03-31T19:24:34.134Z,78.02
2023-03-31T19:29:36.738Z,78.02
2023-03-31T19:34:39.216Z,78.08
2023-03-31T19:39:41.782Z,78.30
2023-03-31T19:44:45.403Z,78.28
2023-03-31T19:49:47.991Z,78.43
2023-03-31T19:54:50.731Z,78.16
2023-03-31T19:59:53.216Z,78.59
2023-03-31T20:04:56.170Z,78.55
2023-03-31T20:09:58.609Z,78.57
2023-03-31T20:15:01.124Z,78.50
2023-03-31T20:20:03.780Z,78.49
2023-03-31T20:25:06.916Z,78.72
2023-03-31T20:30:09.963Z,78.66
2023-03-31T20:35:12.997Z,78.66
2023-03-31T20:40:16.305Z,78.79
2023-03-31T20:45:18.793Z,78.80
2023-03-31T20:50:23.255Z,78.87
2023-03-31T20:55:25.794Z,79.23
2023-03-31T21:00:31.026Z,79.00
2023-03-31T21:05:33.782Z,79.06
2023-03-31T21:10:41.765Z,79.10
2023-03-31T21:15:49.139Z,79.20
2023-03-31T21:20:59.637Z,79.18
2023-03-31T21:26:03.776Z,79.15
2023-03-31T21:31:12.133Z,79.45
2023-03-31T21:36:17.008Z,79.44
2023-03-31T21:41:26.299Z,79.33
2023-03-31T21:46:30.715Z,79.18
2023-03-31T21:51:33.131Z,79.45
2023-03-31T21:56:35.626Z,79.21
2023-03-31T22:01:38.080Z,79.29
2023-03-31T22:06:40.657Z,79.34
2023-03-31T22:11:43.154Z,79.47
2023-03-31T22:16:45.510Z,79.53
2023-03-31T22:21:50.291Z,79.45
2023-03-31T22:26:52.701Z,79.58
2023-03-31T22:31:55.090Z,79.52
2023-03-31T22:36:57.812Z,79.61
2023-03-31T22:42:00.125Z,79.68
2023-03-31T22:47:03.550Z,79.57
2023-03-31T22:52:06.267Z,79.60
2023-03-31T22:57:08.901Z,79.75
2023-03-31T23:02:11.706Z,79.66
2023-03-31T23:07:15.978Z,79.65
2023-03-31T23:12:18.302Z,79.58
2023-03-31T23:17:21.069Z,79.58
2023-03-31T23:22:25.714Z,79.86
2023-03-31T23:27:28.037Z,79.69
2023-03-31T23:32:30.821Z,79.77
2023-03-31T23:37:33.145Z,79.93
2023-03-31T23:42:35.827Z,79.97
2023-03-31T23:47:41.037Z,80.06
2023-03-31T23:52:43.489Z,79.81
2023-03-31T23:57:46.039Z,80.08
